createdAt,value
2018-05-24T00:00:16.640Z,100336.63
2018-05-24T00:02:42.617Z,100343.89
2018-05-24T00:05:08.603Z,100342.52
2018-05-24T00:07:34.593Z,100346.99
2018-05-24T00:10:00.554Z,100349.05
2018-05-24T00:12:26.497Z,100347.30
2018-05-24T00:14:52.455Z,100352.61
2018-05-24T00:17:18.446Z,100351.81
2018-05-24T00:19:44.403Z,100350.06
2018-05-24T00:22:10.367Z,100353.09
2018-05-24T00:24:36.331Z,100357.74
2018-05-24T00:27:02.322Z,100354.52
2018-05-24T00:29:28.265Z,100362.17
2018-05-24T00:31:54.240Z,100368.34
2018-05-24T00:34:20.272Z,100363.48
2018-05-24T00:36:46.158Z,100364.03
2018-05-24T00:39:12.110Z,100366.24
2018-05-24T00:41:38.054Z,100365.19
2018-05-24T00:44:04.013Z,100364.66
2018-05-24T00:46:29.995Z,100366.83
2018-05-24T00:48:55.980Z,100367.68
2018-05-24T00:51:21.966Z,100358.87
2018-05-24T00:53:47.938Z,100364.81
2018-05-24T00:56:13.899Z,100352.27
2018-05-24T00:58:39.891Z,100358.95
2018-05-24T01:01:05.883Z,100353.91
2018-05-24T01:03:31.837Z,100345.64
2018-05-24T01:05:57.773Z,100347.81
2018-05-24T01:08:23.738Z,100346.22
2018-05-24T01:10:49.698Z,100347.58
2018-05-24T01:13:15.674Z,100355.41
2018-05-24T01:15:41.667Z,100354.98
2018-05-24T01:18:07.560Z,100363.21
2018-05-24T01:20:33.533Z,100355.67
2018-05-24T01:22:59.466Z,100354.09
2018-05-24T01:25:25.443Z,100350.45
2018-05-24T01:27:51.398Z,100355.72
2018-05-24T01:30:17.361Z,100345.52
2018-05-24T01:32:43.318Z,100349.32
2018-05-24T01:35:09.254Z,100352.95
2018-05-24T01:37:35.228Z,100344.88
2018-05-24T01:40:01.186Z,100346.16
2018-05-24T01:42:27.169Z,100340.69
2018-05-24T01:44:53.133Z,100345.06
2018-05-24T01:47:19.103Z,100345.13
2018-05-24T01:49:45.045Z,100343.11
2018-05-24T01:52:11.006Z,100341.40
2018-05-24T01:54:36.946Z,100345.10
2018-05-24T01:57:02.905Z,100344.61
2018-05-24T01:59:28.854Z,100344.49
2018-05-24T02:01:54.855Z,100341.72
2018-05-24T02:04:20.800Z,100349.55
2018-05-24T02:06:46.753Z,100347.37
2018-05-24T02:09:12.706Z,100345.80
2018-05-24T02:11:38.635Z,100348.25
2018-05-24T02:14:04.611Z,100345.80
2018-05-24T02:16:30.557Z,100356.28
2018-05-24T02:18:56.513Z,100352.19
2018-05-24T02:21:22.485Z,100356.39
2018-05-24T02:23:48.461Z,100358.59
2018-05-24T02:26:14.406Z,100362.59
2018-05-24T02:28:40.346Z,100359.05
2018-05-24T02:31:06.286Z,100356.16
2018-05-24T02:33:32.252Z,100355.30
2018-05-24T02:35:58.332Z,100354.63
2018-05-24T02:38:24.153Z,100356.98
2018-05-24T02:40:50.090Z,100353.93
2018-05-24T02:43:16.061Z,100356.52
2018-05-24T02:45:41.994Z,100354.97
2018-05-24T02:48:07.964Z,100359.14
2018-05-24T02:50:33.934Z,100355.67
2018-05-24T02:52:59.909Z,100354.52
2018-05-24T02:55:25.906Z,100356.73
2018-05-24T02:57:51.875Z,100349.92
2018-05-24T03:00:17.845Z,100350.77
2018-05-24T03:02:43.801Z,100347.51
2018-05-24T03:05:09.748Z,100346.78
2018-05-24T03:07:35.745Z,100345.11
2018-05-24T03:10:01.737Z,100340.88
2018-05-24T03:12:27.696Z,100350.90
2018-05-24T03:14:53.676Z,100349.16
2018-05-24T03:17:19.619Z,100334.83
2018-05-24T03:19:45.587Z,100347.70
2018-05-24T03:22:11.549Z,100346.13
2018-05-24T03:24:37.491Z,100346.30
2018-05-24T03:27:03.463Z,100348.44
2018-05-24T03:29:29.417Z,100344.27
2018-05-24T03:31:55.406Z,100346.27
2018-05-24T03:34:21.337Z,100349.07
2018-05-24T03:36:47.293Z,100353.33
2018-05-24T03:39:13.364Z,100334.49
2018-05-24T03:41:39.366Z,100348.45
2018-05-24T03:44:05.393Z,100343.78
2018-05-24T03:46:31.392Z,100342.44
2018-05-24T03:48:57.376Z,100345.05
2018-05-24T03:51:23.333Z,100351.23
2018-05-24T03:53:49.329Z,100349.44
2018-05-24T03:56:15.333Z,100353.55
2018-05-24T03:58:41.326Z,100353.18
2018-05-24T04:01:07.269Z,100356.73
2018-05-24T04:03:33.270Z,100362.49
2018-05-24T04:05:59.356Z,100360.42
2018-05-24T04:08:25.366Z,100358.50
2018-05-24T04:10:51.305Z,100355.00
2018-05-24T04:13:17.271Z,100364.01
2018-05-24T04:15:43.252Z,100358.50
2018-05-24T04:18:09.294Z,100363.75
2018-05-24T04:20:35.326Z,100361.84
2018-05-24T04:23:01.282Z,100356.19
2018-05-24T04:25:27.286Z,100367.62
2018-05-24T04:27:53.238Z,100361.72
2018-05-24T04:30:19.260Z,100356.80
2018-05-24T04:32:45.246Z,100363.27
2018-05-24T04:35:11.226Z,100363.90
2018-05-24T04:37:37.193Z,100368.16
2018-05-24T04:40:03.169Z,100358.47
2018-05-24T04:42:29.129Z,100370.11
2018-05-24T04:44:55.194Z,100369.12
2018-05-24T04:47:21.168Z,100377.47
2018-05-24T04:49:47.215Z,100377.84
2018-05-24T04:52:13.213Z,100376.33
2018-05-24T04:54:39.197Z,100373.80
2018-05-24T04:57:05.196Z,100367.56
2018-05-24T04:59:31.215Z,100382.20
2018-05-24T05:01:57.181Z,100357.17
2018-05-24T05:04:23.134Z,100375.17
2018-05-24T05:06:49.074Z,100367.78
2018-05-24T05:09:15.017Z,100363.07
2018-05-24T05:11:40.977Z,100369.06
2018-05-24T05:14:06.990Z,100368.58
2018-05-24T05:16:33.036Z,100371.55
2018-05-24T05:18:58.927Z,100373.02
2018-05-24T05:21:24.916Z,100376.48
2018-05-24T05:23:50.885Z,100373.72
2018-05-24T05:26:16.857Z,100366.41
2018-05-24T05:28:42.861Z,100372.26
2018-05-24T05:31:08.811Z,100374.02
2018-05-24T05:33:34.800Z,100371.11
2018-05-24T05:36:00.753Z,100368.09
2018-05-24T05:38:26.777Z,100372.30
2018-05-24T05:40:52.721Z,100375.61
2018-05-24T05:43:18.681Z,100375.27
2018-05-24T05:45:44.659Z,100373.89
2018-05-24T05:48:10.628Z,100377.23
2018-05-24T05:50:36.666Z,100376.36
2018-05-24T05:53:02.616Z,100375.09
2018-05-24T05:55:28.606Z,100374.20
2018-05-24T05:57:54.565Z,100370.55
2018-05-24T06:00:20.528Z,100371.52
2018-05-24T06:02:46.513Z,100377.92
2018-05-24T06:05:12.486Z,100375.73
2018-05-24T06:07:38.477Z,100372.65
2018-05-24T06:10:04.428Z,100369.02
2018-05-24T06:12:30.361Z,100368.80
2018-05-24T06:14:56.316Z,100371.19
2018-05-24T06:17:22.335Z,100369.66
2018-05-24T06:19:48.311Z,100372.08
2018-05-24T06:22:14.294Z,100370.41
2018-05-24T06:24:40.253Z,100375.64
2018-05-24T06:27:06.221Z,100378.80
2018-05-24T06:29:32.187Z,100378.33
2018-05-24T06:31:58.131Z,100381.56
2018-05-24T06:34:24.094Z,100381.71
2018-05-24T06:36:50.081Z,100384.09
2018-05-24T06:39:16.036Z,100383.88
2018-05-24T06:41:41.987Z,100382.48
2018-05-24T06:44:07.973Z,100385.50
2018-05-24T06:46:34.000Z,100389.81
2018-05-24T06:48:59.920Z,100387.97
2018-05-24T06:51:25.889Z,100383.97
2018-05-24T06:53:51.942Z,100387.55
2018-05-24T06:56:17.873Z,100392.55
2018-05-24T06:58:43.876Z,100390.47
2018-05-24T07:01:09.889Z,100398.67
2018-05-24T07:03:35.937Z,100400.11
2018-05-24T07:06:01.974Z,100399.31
2018-05-24T07:08:27.911Z,100399.19
2018-05-24T07:10:53.926Z,100397.22
2018-05-24T07:13:19.898Z,100396.27
2018-05-24T07:15:45.896Z,100397.39
2018-05-24T07:18:11.898Z,100392.61
2018-05-24T07:20:37.878Z,100392.77
2018-05-24T07:23:03.859Z,100383.33
2018-05-24T07:25:29.856Z,100383.16
2018-05-24T07:27:55.872Z,100380.34
2018-05-24T07:30:21.882Z,100386.09
2018-05-24T07:32:47.896Z,100392.31
2018-05-24T07:35:13.879Z,100381.17
2018-05-24T07:37:39.870Z,100383.89
2018-05-24T07:40:05.801Z,100376.27
2018-05-24T07:42:31.789Z,100380.86
2018-05-24T07:44:57.774Z,100387.19
2018-05-24T07:47:23.726Z,100380.86
2018-05-24T07:49:49.670Z,100378.81
2018-05-24T07:52:15.620Z,100378.70
2018-05-24T07:54:41.603Z,100381.28
2018-05-24T07:57:07.602Z,100376.36
2018-05-24T07:59:33.557Z,100380.09
2018-05-24T08:01:59.524Z,100369.91
2018-05-24T08:04:25.482Z,100369.73
2018-05-24T08:06:51.473Z,100371.75
2018-05-24T08:09:17.459Z,100363.63
2018-05-24T08:11:43.407Z,100367.98
2018-05-24T08:14:09.369Z,100365.54
2018-05-24T08:16:35.363Z,100370.31
2018-05-24T08:19:01.330Z,100359.49
2018-05-24T08:21:27.290Z,100359.11
2018-05-24T08:23:53.229Z,100356.27
2018-05-24T08:26:19.263Z,100352.48
2018-05-24T08:28:45.216Z,100346.66
2018-05-24T08:31:11.202Z,100350.53
2018-05-24T08:33:37.160Z,100356.39
2018-05-24T08:36:03.163Z,100364.15
2018-05-24T08:38:29.124Z,100360.57
2018-05-24T08:40:55.150Z,100357.97
2018-05-24T08:43:21.171Z,100358.36
2018-05-24T08:45:47.162Z,100364.84
2018-05-24T08:48:13.136Z,100361.11
2018-05-24T08:50:39.113Z,100358.79
2018-05-24T08:53:05.073Z,100354.55
2018-05-24T08:55:31.028Z,100357.02
2018-05-24T08:57:56.981Z,100351.80
2018-05-24T09:00:22.937Z,100357.39
2018-05-24T09:02:48.873Z,100357.55
2018-05-24T09:05:14.867Z,100359.22
2018-05-24T09:07:40.820Z,100357.41
2018-05-24T09:10:06.787Z,100358.00
2018-05-24T09:12:32.730Z,100355.97
2018-05-24T09:14:58.742Z,100353.45
2018-05-24T09:17:24.707Z,100360.45
2018-05-24T09:19:50.701Z,100352.69
2018-05-24T09:22:16.657Z,100351.36
2018-05-24T09:24:42.612Z,100351.63
2018-05-24T09:27:08.612Z,100348.61
2018-05-24T09:29:34.552Z,100342.67
2018-05-24T09:32:00.536Z,100347.43
2018-05-24T09:34:26.629Z,100347.97
2018-05-24T09:36:52.595Z,100338.59
2018-05-24T09:39:18.582Z,100339.89
2018-05-24T09:41:44.597Z,100349.27
2018-05-24T09:44:10.616Z,100342.83
2018-05-24T09:46:36.604Z,100337.05
2018-05-24T09:49:02.550Z,100330.98
2018-05-24T09:51:28.559Z,100329.27
2018-05-24T09:53:54.572Z,100328.05
2018-05-24T09:56:20.514Z,100321.40
2018-05-24T09:58:46.484Z,100321.78
2018-05-24T10:01:12.451Z,100325.36
2018-05-24T10:03:38.417Z,100318.41
2018-05-24T10:06:04.361Z,100322.31
2018-05-24T10:08:30.306Z,100311.98
2018-05-24T10:10:56.259Z,100309.81
2018-05-24T10:13:22.223Z,100306.88
2018-05-24T10:15:48.180Z,100307.61
2018-05-24T10:18:14.162Z,100307.06
2018-05-24T10:20:40.185Z,100308.92
2018-05-24T10:23:06.178Z,100310.12
2018-05-24T10:25:32.153Z,100295.24
2018-05-24T10:27:58.097Z,100309.16
2018-05-24T10:30:24.077Z,100295.43
2018-05-24T10:32:50.031Z,100300.55
2018-05-24T10:35:15.993Z,100300.23
2018-05-24T10:37:41.960Z,100300.08
2018-05-24T10:40:07.913Z,100295.92
2018-05-24T10:42:33.893Z,100290.14
2018-05-24T10:44:59.886Z,100293.53
2018-05-24T10:47:25.867Z,100292.92
2018-05-24T10:49:51.876Z,100287.83
2018-05-24T10:52:17.851Z,100282.20
2018-05-24T10:54:43.830Z,100279.39
2018-05-24T10:57:09.820Z,100287.60
2018-05-24T10:59:35.810Z,100286.42
2018-05-24T11:02:02.320Z,100285.92
2018-05-24T11:04:29.164Z,100286.53
2018-05-24T11:06:55.138Z,100287.89
2018-05-24T11:09:21.117Z,100287.46
2018-05-24T11:11:47.148Z,100274.43
2018-05-24T11:14:13.090Z,100288.03
2018-05-24T11:16:39.041Z,100282.57
2018-05-24T11:19:04.997Z,100268.72
2018-05-24T11:21:30.979Z,100282.70
2018-05-24T11:23:56.972Z,100276.72
2018-05-24T11:26:22.945Z,100287.64
2018-05-24T11:28:48.885Z,100273.27
2018-05-24T11:31:14.815Z,100269.11
2018-05-24T11:33:40.782Z,100267.92
2018-05-24T11:36:06.754Z,100261.13
2018-05-24T11:38:32.705Z,100254.91
2018-05-24T11:40:58.684Z,100271.84
2018-05-24T11:43:24.708Z,100251.84
2018-05-24T11:45:50.631Z,100251.16
2018-05-24T11:48:16.590Z,100249.30
2018-05-24T11:50:42.566Z,100254.22
2018-05-24T11:53:08.565Z,100248.58
2018-05-24T11:55:34.583Z,100258.20
2018-05-24T11:58:00.591Z,100252.27
2018-05-24T12:00:26.574Z,100252.75
2018-05-24T12:02:52.564Z,100244.36
2018-05-24T12:05:18.559Z,100256.51
2018-05-24T12:07:44.591Z,100244.41
2018-05-24T12:10:10.555Z,100237.48
2018-05-24T12:12:36.513Z,100232.30
2018-05-24T12:15:02.515Z,100228.62
2018-05-24T12:17:28.468Z,100220.66
2018-05-24T12:19:54.449Z,100214.95
2018-05-24T12:22:20.421Z,100215.80
2018-05-24T12:24:46.417Z,100210.55
2018-05-24T12:27:12.400Z,100214.72
2018-05-24T12:29:38.439Z,100207.55
2018-05-24T12:32:04.428Z,100219.63
2018-05-24T12:34:30.381Z,100213.58
2018-05-24T12:36:56.355Z,100223.05
2018-05-24T12:39:22.318Z,100211.95
2018-05-24T12:41:48.317Z,100217.09
2018-05-24T12:44:14.284Z,100219.61
2018-05-24T12:46:40.263Z,100219.30
2018-05-24T12:49:06.304Z,100212.50
2018-05-24T12:51:32.186Z,100214.31
2018-05-24T12:53:58.181Z,100207.54
2018-05-24T12:56:24.156Z,100204.10
2018-05-24T12:58:50.134Z,100225.98
2018-05-24T13:01:16.070Z,100210.15
2018-05-24T13:03:42.065Z,100192.81
2018-05-24T13:06:08.031Z,100197.52
2018-05-24T13:08:34.033Z,100186.39
2018-05-24T13:10:59.990Z,100191.52
2018-05-24T13:13:26.011Z,100184.53
2018-05-24T13:15:51.986Z,100194.69
2018-05-24T13:18:17.938Z,100187.47
2018-05-24T13:20:43.907Z,100183.72
2018-05-24T13:23:09.867Z,100178.63
2018-05-24T13:25:35.833Z,100177.70
2018-05-24T13:28:01.813Z,100181.34
2018-05-24T13:30:27.783Z,100188.89
2018-05-24T13:32:53.786Z,100187.48
2018-05-24T13:35:19.750Z,100186.28
2018-05-24T13:37:45.705Z,100176.38
2018-05-24T13:40:11.691Z,100180.53
2018-05-24T13:42:37.666Z,100186.91
2018-05-24T13:45:03.654Z,100171.39
2018-05-24T13:47:29.602Z,100163.84
2018-05-24T13:49:55.578Z,100171.67
2018-05-24T13:52:21.547Z,100175.85
2018-05-24T13:54:47.514Z,100170.53
2018-05-24T13:57:13.480Z,100159.80
2018-05-24T13:59:39.492Z,100164.84
2018-05-24T14:02:05.452Z,100151.50
2018-05-24T14:04:31.417Z,100161.48
2018-05-24T14:06:57.382Z,100159.55
2018-05-24T14:09:23.402Z,100165.53
2018-05-24T14:11:49.355Z,100162.20
2018-05-24T14:14:15.337Z,100181.34
2018-05-24T14:16:41.322Z,100170.98
2018-05-24T14:19:07.350Z,100169.48
2018-05-24T14:21:33.335Z,100175.89
2018-05-24T14:23:59.305Z,100177.69
2018-05-24T14:26:25.300Z,100178.05
2018-05-24T14:28:51.291Z,100185.97
2018-05-24T14:31:17.249Z,100182.75
2018-05-24T14:33:43.201Z,100185.53
2018-05-24T14:36:09.157Z,100187.72
2018-05-24T14:38:35.116Z,100193.00
2018-05-24T14:41:01.150Z,100195.45
2018-05-24T14:43:27.122Z,100178.85
2018-05-24T14:45:53.214Z,100179.34
2018-05-24T14:48:19.170Z,100190.30
2018-05-24T14:50:45.117Z,100188.29
2018-05-24T14:53:11.107Z,100178.05
2018-05-24T14:55:37.145Z,100188.70
2018-05-24T14:58:03.078Z,100180.56
2018-05-24T15:00:29.080Z,100153.50
2018-05-24T15:02:55.020Z,100180.68
2018-05-24T15:05:21.013Z,100168.61
2018-05-24T15:07:46.992Z,100163.91
2018-05-24T15:10:13.017Z,100161.41
2018-05-24T15:12:38.952Z,100158.64
2018-05-24T15:15:04.894Z,100157.79
2018-05-24T15:17:30.847Z,100154.90
2018-05-24T15:19:56.853Z,100149.51
2018-05-24T15:22:22.820Z,100155.83
2018-05-24T15:24:48.814Z,100153.75
2018-05-24T15:27:14.794Z,100153.30
2018-05-24T15:29:40.816Z,100154.85
2018-05-24T15:32:06.801Z,100161.77
2018-05-24T15:34:32.757Z,100150.88
2018-05-24T15:36:58.721Z,100152.77
2018-05-24T15:39:24.696Z,100162.07
2018-05-24T15:41:50.690Z,100162.68
2018-05-24T15:44:17.130Z,100155.83
2018-05-24T15:46:43.121Z,100153.67
2018-05-24T15:49:09.078Z,100157.55
2018-05-24T15:51:35.056Z,100155.71
2018-05-24T15:54:01.012Z,100157.84
2018-05-24T15:56:26.974Z,100153.27
2018-05-24T15:58:52.939Z,100153.73
2018-05-24T16:01:18.897Z,100158.14
2018-05-24T16:03:44.902Z,100151.96
2018-05-24T16:06:10.886Z,100153.59
2018-05-24T16:08:36.860Z,100155.80
2018-05-24T16:11:02.831Z,100155.45
2018-05-24T16:13:28.801Z,100156.93
2018-05-24T16:15:54.793Z,100156.20
2018-05-24T16:18:20.747Z,100156.17
2018-05-24T16:20:46.705Z,100181.78
2018-05-24T16:23:12.845Z,100163.40
2018-05-24T16:25:38.813Z,100175.16
2018-05-24T16:28:04.793Z,100166.09
2018-05-24T16:30:30.787Z,100164.19
2018-05-24T16:32:56.753Z,100172.08
2018-05-24T16:35:22.761Z,100167.53
2018-05-24T16:37:48.787Z,100161.79
2018-05-24T16:40:14.831Z,100161.18
2018-05-24T16:42:40.788Z,100168.95
2018-05-24T16:45:06.803Z,100167.58
2018-05-24T16:47:32.861Z,100167.08
2018-05-24T16:49:58.813Z,100168.85
2018-05-24T16:52:24.809Z,100173.56
2018-05-24T16:54:50.773Z,100176.09
2018-05-24T16:57:16.740Z,100175.00
2018-05-24T16:59:42.691Z,100176.70
2018-05-24T17:02:08.654Z,100175.47
2018-05-24T17:04:34.617Z,100188.28
2018-05-24T17:07:00.611Z,100188.52
2018-05-24T17:09:26.555Z,100185.02
2018-05-24T17:11:52.513Z,100175.45
2018-05-24T17:14:18.470Z,100179.45
2018-05-24T17:19:16.862Z,100177.46
2018-05-24T17:21:42.918Z,100174.44
2018-05-24T17:24:08.891Z,100178.09
2018-05-24T17:26:34.847Z,100182.64
2018-05-24T17:29:00.776Z,100178.98
2018-05-24T17:31:26.764Z,100185.85
2018-05-24T17:33:52.728Z,100186.06
2018-05-24T17:36:18.745Z,100185.50
2018-05-24T17:38:44.733Z,100181.66
2018-05-24T17:41:10.754Z,100183.86
2018-05-24T17:43:36.707Z,100180.34
2018-05-24T17:46:02.741Z,100173.11
2018-05-24T17:48:28.867Z,100183.44
2018-05-24T17:50:54.929Z,100175.10
2018-05-24T17:53:20.962Z,100175.10
2018-05-24T17:55:47.005Z,100181.43
2018-05-24T17:58:12.982Z,100175.81
2018-05-24T18:00:38.932Z,100172.17
2018-05-24T18:03:04.951Z,100173.09
2018-05-24T18:05:30.927Z,100177.05
2018-05-24T18:07:56.979Z,100173.63
2018-05-24T18:10:22.924Z,100177.85
2018-05-24T18:12:48.894Z,100181.23
2018-05-24T18:15:14.864Z,100182.56
2018-05-24T18:17:40.860Z,100172.78
2018-05-24T18:20:06.844Z,100179.16
2018-05-24T18:22:32.821Z,100180.33
2018-05-24T18:24:58.852Z,100180.84
2018-05-24T18:27:24.874Z,100182.68
2018-05-24T18:29:51.015Z,100184.92
2018-05-24T18:32:17.037Z,100181.70
2018-05-24T18:34:43.017Z,100184.67
2018-05-24T18:37:09.027Z,100183.92
2018-05-24T18:39:34.996Z,100180.06
2018-05-24T18:42:01.000Z,100181.94
2018-05-24T18:44:27.037Z,100190.73
2018-05-24T18:46:53.034Z,100183.12
2018-05-24T18:49:19.046Z,100188.04
2018-05-24T18:51:45.030Z,100188.78
2018-05-24T18:54:11.001Z,100185.53
2018-05-24T18:56:37.045Z,100188.36
2018-05-24T18:59:03.062Z,100193.97
2018-05-24T19:01:29.039Z,100196.86
2018-05-24T19:03:55.046Z,100201.37
2018-05-24T19:06:21.091Z,100201.89
2018-05-24T19:08:47.117Z,100197.09
2018-05-24T19:11:13.100Z,100201.05
2018-05-24T19:13:39.083Z,100202.96
2018-05-24T19:16:05.066Z,100205.75
2018-05-24T19:18:31.027Z,100205.44
2018-05-24T19:20:57.017Z,100208.48
2018-05-24T19:23:23.038Z,100213.93
2018-05-24T19:25:49.057Z,100208.16
2018-05-24T19:28:15.045Z,100213.93
2018-05-24T19:30:41.050Z,100211.41
2018-05-24T19:33:07.109Z,100215.49
2018-05-24T19:35:33.136Z,100219.23
2018-05-24T19:37:59.133Z,100220.67
2018-05-24T19:40:25.075Z,100213.24
2018-05-24T19:42:51.046Z,100226.47
2018-05-24T19:45:17.159Z,100234.86
2018-05-24T19:47:43.146Z,100234.91
2018-05-24T19:50:09.179Z,100236.95
2018-05-24T19:52:35.186Z,100228.27
2018-05-24T19:55:01.185Z,100229.98
2018-05-24T19:57:27.180Z,100238.86
2018-05-24T19:59:53.161Z,100234.85
2018-05-24T20:02:19.125Z,100237.30
2018-05-24T20:04:45.227Z,100233.13
2018-05-24T20:07:11.281Z,100231.22
2018-05-24T20:09:37.309Z,100228.42
2018-05-24T20:12:03.300Z,100224.85
2018-05-24T20:14:29.292Z,100224.97
2018-05-24T20:16:55.301Z,100226.38
2018-05-24T20:19:21.305Z,100228.11
2018-05-24T20:21:47.312Z,100230.15
2018-05-24T20:24:13.354Z,100220.64
2018-05-24T20:26:39.404Z,100223.95
2018-05-24T20:29:05.425Z,100224.56
2018-05-24T20:31:31.456Z,100228.98
2018-05-24T20:33:57.476Z,100227.16
2018-05-24T20:36:23.503Z,100220.80
2018-05-24T20:38:49.567Z,100226.75
2018-05-24T20:41:15.572Z,100225.52
2018-05-24T20:43:41.592Z,100222.34
2018-05-24T20:46:07.608Z,100220.34
2018-05-24T20:48:33.668Z,100217.45
2018-05-24T20:50:59.686Z,100215.21
2018-05-24T20:53:25.712Z,100213.97
2018-05-24T20:55:51.739Z,100219.25
2018-05-24T20:58:17.734Z,100219.72
2018-05-24T21:00:43.728Z,100224.85
2018-05-24T21:03:09.765Z,100223.70
2018-05-24T21:05:35.782Z,100228.27
2018-05-24T21:08:01.801Z,100232.29
2018-05-24T21:10:27.809Z,100231.73
2018-05-24T21:12:53.807Z,100226.78
2018-05-24T21:15:19.834Z,100231.45
2018-05-24T21:17:45.872Z,100238.41
2018-05-24T21:20:11.894Z,100240.51
2018-05-24T21:22:37.920Z,100243.14
2018-05-24T21:25:03.940Z,100239.17
2018-05-24T21:27:29.938Z,100243.35
2018-05-24T21:29:55.956Z,100250.63
2018-05-24T21:32:21.970Z,100245.59
2018-05-24T21:34:47.976Z,100248.02
2018-05-24T21:37:13.964Z,100249.98
2018-05-24T21:39:40.118Z,100247.84
2018-05-24T21:42:06.113Z,100245.28
2018-05-24T21:44:32.117Z,100246.75
2018-05-24T21:46:58.106Z,100250.07
2018-05-24T21:49:24.128Z,100244.91
2018-05-24T21:51:50.130Z,100247.08
2018-05-24T21:54:16.146Z,100249.17
2018-05-24T21:56:42.142Z,100248.83
2018-05-24T21:59:08.168Z,100249.05
2018-05-24T22:01:34.200Z,100254.03
2018-05-24T22:04:00.231Z,100257.69
2018-05-24T22:06:26.260Z,100246.55
2018-05-24T22:08:52.319Z,100252.83
2018-05-24T22:11:18.317Z,100248.26
2018-05-24T22:13:44.329Z,100255.58
2018-05-24T22:16:10.309Z,100245.06
2018-05-24T22:18:36.305Z,100246.81
2018-05-24T22:21:02.332Z,100250.15
2018-05-24T22:23:28.335Z,100253.84
2018-05-24T22:25:54.343Z,100248.08
2018-05-24T22:28:20.361Z,100259.32
2018-05-24T22:33:18.863Z,100245.73
2018-05-24T22:35:44.864Z,100243.94
2018-05-24T22:38:10.872Z,100246.92
2018-05-24T22:40:36.908Z,100247.81
2018-05-24T22:43:02.904Z,100244.05
2018-05-24T22:45:28.940Z,100244.88
2018-05-24T22:47:54.975Z,100243.83
2018-05-24T22:50:20.966Z,100249.14
2018-05-24T22:52:46.983Z,100249.68
2018-05-24T22:55:12.972Z,100255.34
2018-05-24T22:57:38.957Z,100248.59
2018-05-24T23:00:04.959Z,100252.96
2018-05-24T23:02:30.993Z,100255.17
2018-05-24T23:04:57.019Z,100254.50
2018-05-24T23:07:23.072Z,100250.17
2018-05-24T23:09:49.062Z,100249.73
2018-05-24T23:12:15.068Z,100252.05
2018-05-24T23:14:41.088Z,100250.95
2018-05-24T23:17:07.107Z,100253.95
2018-05-24T23:19:33.121Z,100251.02
2018-05-24T23:21:59.113Z,100248.13
2018-05-24T23:24:25.112Z,100246.95
2018-05-24T23:26:51.124Z,100244.47
2018-05-24T23:29:17.143Z,100242.27
2018-05-24T23:31:43.143Z,100247.05
2018-05-24T23:34:09.148Z,100245.73
2018-05-24T23:36:35.158Z,100248.89
2018-05-24T23:39:01.136Z,100247.71
2018-05-24T23:41:27.136Z,100247.67
2018-05-24T23:43:53.140Z,100242.92
2018-05-24T23:46:19.167Z,100241.52
2018-05-24T23:48:45.162Z,100242.27
2018-05-24T23:51:11.193Z,100243.84
2018-05-24T23:53:37.203Z,100251.28
2018-05-24T23:56:03.228Z,100238.73
2018-05-24T23:58:29.248Z,100236.11
